sensor_id;sensor_type;location;lat;lon;timestamp;P1;durP1;ratioP1;P2;durP2;ratioP2
44764;SDS011;30484;52.382;5.260;2022-09-09T00:02:03;5.07;;;1.42;;
44764;SDS011;30484;52.382;5.260;2022-09-09T00:04:49;4.80;;;1.45;;
44764;SDS011;30484;52.382;5.260;2022-09-09T00:07:32;3.70;;;1.20;;
44764;SDS011;30484;52.382;5.260;2022-09-09T00:10:13;4.78;;;1.20;;
44764;SDS011;30484;52.382;5.260;2022-09-09T00:12:52;4.20;;;1.13;;
44764;SDS011;30484;52.382;5.260;2022-09-09T00:15:30;4.07;;;1.23;;
44764;SDS011;30484;52.382;5.260;2022-09-09T00:18:10;4.05;;;1.40;;
44764;SDS011;30484;52.382;5.260;2022-09-09T00:20:49;2.92;;;1.17;;
44764;SDS011;30484;52.382;5.260;2022-09-09T00:23:25;3.30;;;1.23;;
44764;SDS011;30484;52.382;5.260;2022-09-09T00:26:00;6.10;;;1.42;;
44764;SDS011;30484;52.382;5.260;2022-09-09T00:28:39;4.05;;;1.20;;
44764;SDS011;30484;52.382;5.260;2022-09-09T00:31:14;9.18;;;1.30;;
44764;SDS011;30484;52.382;5.260;2022-09-09T00:33:51;5.10;;;1.10;;
44764;SDS011;30484;52.382;5.260;2022-09-09T00:36:23;6.38;;;1.20;;
44764;SDS011;30484;52.382;5.260;2022-09-09T00:38:56;3.35;;;1.23;;
44764;SDS011;30484;52.382;5.260;2022-09-09T00:41:29;5.40;;;1.33;;
44764;SDS011;30484;52.382;5.260;2022-09-09T00:44:19;8.63;;;1.77;;
44764;SDS011;30484;52.382;5.260;2022-09-09T00:47:00;4.85;;;1.42;;
44764;SDS011;30484;52.382;5.260;2022-09-09T00:49:45;3.35;;;1.30;;
44764;SDS011;30484;52.382;5.260;2022-09-09T00:52:30;5.90;;;1.58;;
44764;SDS011;30484;52.382;5.260;2022-09-09T00:55:08;5.88;;;1.50;;
44764;SDS011;30484;52.382;5.260;2022-09-09T00:57:47;6.43;;;1.40;;
44764;SDS011;30484;52.382;5.260;2022-09-09T01:00:21;4.10;;;1.58;;
44764;SDS011;30484;52.382;5.260;2022-09-09T01:02:53;8.15;;;1.70;;
44764;SDS011;30484;52.382;5.260;2022-09-09T01:05:39;6.20;;;1.88;;
44764;SDS011;30484;52.382;5.260;2022-09-09T01:08:21;5.22;;;1.92;;
44764;SDS011;30484;52.382;5.260;2022-09-09T01:11:16;10.10;;;2.08;;
44764;SDS011;30484;52.382;5.260;2022-09-09T01:16:25;4.65;;;1.40;;
44764;SDS011;30484;52.382;5.260;2022-09-09T01:18:57;5.25;;;1.58;;
44764;SDS011;30484;52.382;5.260;2022-09-09T01:21:29;7.78;;;1.83;;
44764;SDS011;30484;52.382;5.260;2022-09-09T01:24:15;7.68;;;2.38;;
44764;SDS011;30484;52.382;5.260;2022-09-09T01:26:56;5.72;;;2.20;;
44764;SDS011;30484;52.382;5.260;2022-09-09T01:29:28;5.85;;;2.08;;
44764;SDS011;30484;52.382;5.260;2022-09-09T01:31:57;6.00;;;2.00;;
44764;SDS011;30484;52.382;5.260;2022-09-09T01:34:30;13.35;;;2.22;;
44764;SDS011;30484;52.382;5.260;2022-09-09T01:37:04;8.52;;;2.33;;
44764;SDS011;30484;52.382;5.260;2022-09-09T01:39:35;9.75;;;2.60;;
44764;SDS011;30484;52.382;5.260;2022-09-09T01:42:08;7.47;;;2.65;;
44764;SDS011;30484;52.382;5.260;2022-09-09T01:44:39;6.95;;;2.63;;
44764;SDS011;30484;52.382;5.260;2022-09-09T01:47:08;6.05;;;2.70;;
44764;SDS011;30484;52.382;5.260;2022-09-09T01:49:36;8.05;;;2.70;;
44764;SDS011;30484;52.382;5.260;2022-09-09T01:52:05;11.07;;;3.08;;
44764;SDS011;30484;52.382;5.260;2022-09-09T01:54:34;7.40;;;2.83;;
44764;SDS011;30484;52.382;5.260;2022-09-09T01:57:05;8.80;;;3.15;;
44764;SDS011;30484;52.382;5.260;2022-09-09T01:59:48;6.93;;;3.17;;
44764;SDS011;30484;52.382;5.260;2022-09-09T02:02:32;9.70;;;3.90;;
44764;SDS011;30484;52.382;5.260;2022-09-09T02:05:20;7.65;;;3.42;;
44764;SDS011;30484;52.382;5.260;2022-09-09T02:08:00;11.18;;;4.25;;
44764;SDS011;30484;52.382;5.260;2022-09-09T02:10:37;9.13;;;4.20;;
44764;SDS011;30484;52.382;5.260;2022-09-09T02:13:17;9.15;;;4.20;;
44764;SDS011;30484;52.382;5.260;2022-09-09T02:15:51;10.70;;;4.57;;
44764;SDS011;30484;52.382;5.260;2022-09-09T02:18:26;6.50;;;4.18;;
44764;SDS011;30484;52.382;5.260;2022-09-09T02:21:00;13.02;;;4.65;;
44764;SDS011;30484;52.382;5.260;2022-09-09T02:23:30;10.73;;;4.82;;
44764;SDS011;30484;52.382;5.260;2022-09-09T02:26:01;8.18;;;4.90;;
44764;SDS011;30484;52.382;5.260;2022-09-09T02:28:32;10.68;;;4.80;;
44764;SDS011;30484;52.382;5.260;2022-09-09T02:31:03;11.15;;;4.88;;
44764;SDS011;30484;52.382;5.260;2022-09-09T02:33:33;11.65;;;5.10;;
44764;SDS011;30484;52.382;5.260;2022-09-09T02:36:07;8.93;;;5.28;;
44764;SDS011;30484;52.382;5.260;2022-09-09T02:38:39;12.85;;;5.13;;
44764;SDS011;30484;52.382;5.260;2022-09-09T02:41:16;10.88;;;5.32;;
44764;SDS011;30484;52.382;5.260;2022-09-09T02:43:49;10.02;;;5.75;;
44764;SDS011;30484;52.382;5.260;2022-09-09T02:46:27;9.77;;;5.22;;
44764;SDS011;30484;52.382;5.260;2022-09-09T02:49:16;10.82;;;6.00;;
44764;SDS011;30484;52.382;5.260;2022-09-09T02:51:53;13.23;;;5.43;;
44764;SDS011;30484;52.382;5.260;2022-09-09T02:54:30;14.20;;;6.05;;
44764;SDS011;30484;52.382;5.260;2022-09-09T02:57:01;14.85;;;6.22;;
44764;SDS011;30484;52.382;5.260;2022-09-09T02:59:40;14.77;;;5.70;;
44764;SDS011;30484;52.382;5.260;2022-09-09T03:02:10;9.88;;;6.10;;
44764;SDS011;30484;52.382;5.260;2022-09-09T03:04:39;11.60;;;5.90;;
44764;SDS011;30484;52.382;5.260;2022-09-09T03:07:10;11.15;;;6.35;;
44764;SDS011;30484;52.382;5.260;2022-09-09T03:09:38;10.57;;;6.45;;
44764;SDS011;30484;52.382;5.260;2022-09-09T03:12:07;11.77;;;6.78;;
44764;SDS011;30484;52.382;5.260;2022-09-09T03:14:36;13.18;;;7.18;;
44764;SDS011;30484;52.382;5.260;2022-09-09T03:17:06;12.82;;;7.63;;
44764;SDS011;30484;52.382;5.260;2022-09-09T03:19:36;14.48;;;7.57;;
44764;SDS011;30484;52.382;5.260;2022-09-09T03:22:05;14.90;;;7.72;;
44764;SDS011;30484;52.382;5.260;2022-09-09T03:24:34;15.40;;;7.72;;
44764;SDS011;30484;52.382;5.260;2022-09-09T03:27:02;13.85;;;8.23;;
44764;SDS011;30484;52.382;5.260;2022-09-09T03:29:30;14.15;;;7.57;;
44764;SDS011;30484;52.382;5.260;2022-09-09T03:31:59;14.40;;;7.57;;
44764;SDS011;30484;52.382;5.260;2022-09-09T03:34:28;13.50;;;8.15;;
44764;SDS011;30484;52.382;5.260;2022-09-09T03:36:57;13.30;;;7.72;;
44764;SDS011;30484;52.382;5.260;2022-09-09T03:39:25;13.45;;;8.15;;
44764;SDS011;30484;52.382;5.260;2022-09-09T03:41:56;16.90;;;8.07;;
44764;SDS011;30484;52.382;5.260;2022-09-09T03:44:24;13.93;;;8.40;;
44764;SDS011;30484;52.382;5.260;2022-09-09T03:46:52;11.90;;;7.53;;
44764;SDS011;30484;52.382;5.260;2022-09-09T03:49:21;16.75;;;7.60;;
44764;SDS011;30484;52.382;5.260;2022-09-09T03:51:51;15.93;;;7.53;;
44764;SDS011;30484;52.382;5.260;2022-09-09T03:54:20;14.85;;;7.07;;
44764;SDS011;30484;52.382;5.260;2022-09-09T03:56:50;14.20;;;7.72;;
44764;SDS011;30484;52.382;5.260;2022-09-09T03:59:19;10.95;;;6.90;;
44764;SDS011;30484;52.382;5.260;2022-09-09T04:01:49;12.80;;;7.45;;
44764;SDS011;30484;52.382;5.260;2022-09-09T04:04:17;16.10;;;7.82;;
44764;SDS011;30484;52.382;5.260;2022-09-09T04:06:46;12.65;;;7.15;;
44764;SDS011;30484;52.382;5.260;2022-09-09T04:09:16;19.80;;;7.53;;
44764;SDS011;30484;52.382;5.260;2022-09-09T04:11:47;14.35;;;7.53;;
44764;SDS011;30484;52.382;5.260;2022-09-09T04:14:15;16.42;;;7.30;;
44764;SDS011;30484;52.382;5.260;2022-09-09T04:16:44;11.57;;;7.00;;
44764;SDS011;30484;52.382;5.260;2022-09-09T04:19:12;13.10;;;7.55;;
44764;SDS011;30484;52.382;5.260;2022-09-09T04:21:41;11.85;;;7.65;;
44764;SDS011;30484;52.382;5.260;2022-09-09T04:24:10;15.85;;;7.70;;
44764;SDS011;30484;52.382;5.260;2022-09-09T04:26:40;14.35;;;8.00;;
44764;SDS011;30484;52.382;5.260;2022-09-09T04:29:09;14.90;;;8.48;;
44764;SDS011;30484;52.382;5.260;2022-09-09T04:31:37;13.00;;;8.18;;
44764;SDS011;30484;52.382;5.260;2022-09-09T04:34:08;14.15;;;7.97;;
44764;SDS011;30484;52.382;5.260;2022-09-09T04:36:36;18.00;;;8.13;;
44764;SDS011;30484;52.382;5.260;2022-09-09T04:39:05;14.85;;;7.95;;
44764;SDS011;30484;52.382;5.260;2022-09-09T04:41:33;14.68;;;7.55;;
44764;SDS011;30484;52.382;5.260;2022-09-09T04:44:03;16.02;;;7.93;;
44764;SDS011;30484;52.382;5.260;2022-09-09T04:46:31;14.75;;;7.30;;
44764;SDS011;30484;52.382;5.260;2022-09-09T04:49:01;13.93;;;7.45;;
44764;SDS011;30484;52.382;5.260;2022-09-09T04:51:29;15.40;;;7.80;;
44764;SDS011;30484;52.382;5.260;2022-09-09T04:53:58;14.07;;;7.65;;
44764;SDS011;30484;52.382;5.260;2022-09-09T04:56:26;12.32;;;7.05;;
44764;SDS011;30484;52.382;5.260;2022-09-09T04:58:55;14.88;;;7.13;;
44764;SDS011;30484;52.382;5.260;2022-09-09T05:01:24;13.52;;;7.78;;
44764;SDS011;30484;52.382;5.260;2022-09-09T05:03:53;15.73;;;7.82;;
44764;SDS011;30484;52.382;5.260;2022-09-09T05:06:22;16.83;;;7.57;;
44764;SDS011;30484;52.382;5.260;2022-09-09T05:08:51;17.58;;;7.88;;
44764;SDS011;30484;52.382;5.260;2022-09-09T05:11:20;16.20;;;7.50;;
44764;SDS011;30484;52.382;5.260;2022-09-09T05:13:50;11.40;;;7.20;;
44764;SDS011;30484;52.382;5.260;2022-09-09T05:16:20;18.80;;;7.57;;
44764;SDS011;30484;52.382;5.260;2022-09-09T05:18:50;16.98;;;7.57;;
44764;SDS011;30484;52.382;5.260;2022-09-09T05:21:19;14.55;;;7.30;;
44764;SDS011;30484;52.382;5.260;2022-09-09T05:23:51;16.13;;;7.43;;
44764;SDS011;30484;52.382;5.260;2022-09-09T05:26:20;14.45;;;7.10;;
44764;SDS011;30484;52.382;5.260;2022-09-09T05:28:50;16.48;;;7.22;;
44764;SDS011;30484;52.382;5.260;2022-09-09T05:31:18;13.77;;;7.35;;
44764;SDS011;30484;52.382;5.260;2022-09-09T05:33:47;13.52;;;6.95;;
44764;SDS011;30484;52.382;5.260;2022-09-09T05:36:18;18.13;;;6.68;;
44764;SDS011;30484;52.382;5.260;2022-09-09T05:38:48;14.75;;;7.10;;
44764;SDS011;30484;52.382;5.260;2022-09-09T05:41:17;12.70;;;6.72;;
44764;SDS011;30484;52.382;5.260;2022-09-09T05:43:47;14.43;;;7.13;;
44764;SDS011;30484;52.382;5.260;2022-09-09T05:46:16;11.73;;;6.78;;
44764;SDS011;30484;52.382;5.260;2022-09-09T05:48:47;13.07;;;7.07;;
44764;SDS011;30484;52.382;5.260;2022-09-09T05:51:19;15.18;;;6.15;;
44764;SDS011;30484;52.382;5.260;2022-09-09T05:53:50;9.65;;;6.85;;
44764;SDS011;30484;52.382;5.260;2022-09-09T05:56:21;18.13;;;6.93;;
44764;SDS011;30484;52.382;5.260;2022-09-09T05:58:51;17.00;;;6.10;;
44764;SDS011;30484;52.382;5.260;2022-09-09T06:01:21;16.00;;;6.20;;
44764;SDS011;30484;52.382;5.260;2022-09-09T06:03:53;14.60;;;6.40;;
44764;SDS011;30484;52.382;5.260;2022-09-09T06:06:24;21.25;;;6.10;;
44764;SDS011;30484;52.382;5.260;2022-09-09T06:08:55;19.33;;;6.32;;
44764;SDS011;30484;52.382;5.260;2022-09-09T06:11:26;13.27;;;5.38;;
44764;SDS011;30484;52.382;5.260;2022-09-09T06:13:57;14.38;;;6.32;;
44764;SDS011;30484;52.382;5.260;2022-09-09T06:16:26;14.70;;;5.30;;
44764;SDS011;30484;52.382;5.260;2022-09-09T06:18:56;13.77;;;5.43;;
44764;SDS011;30484;52.382;5.260;2022-09-09T06:21:27;14.13;;;5.85;;
44764;SDS011;30484;52.382;5.260;2022-09-09T06:23:58;14.15;;;4.95;;
44764;SDS011;30484;52.382;5.260;2022-09-09T06:26:29;14.65;;;5.35;;
44764;SDS011;30484;52.382;5.260;2022-09-09T06:28:59;12.80;;;4.53;;
44764;SDS011;30484;52.382;5.260;2022-09-09T06:31:30;10.10;;;4.15;;
44764;SDS011;30484;52.382;5.260;2022-09-09T06:34:04;16.13;;;4.57;;
44764;SDS011;30484;52.382;5.260;2022-09-09T06:36:36;15.35;;;4.50;;
44764;SDS011;30484;52.382;5.260;2022-09-09T06:39:06;16.38;;;4.07;;
44764;SDS011;30484;52.382;5.260;2022-09-09T06:41:40;11.40;;;3.92;;
44764;SDS011;30484;52.382;5.260;2022-09-09T06:44:09;10.80;;;3.83;;
44764;SDS011;30484;52.382;5.260;2022-09-09T06:46:39;12.27;;;4.03;;
44764;SDS011;30484;52.382;5.260;2022-09-09T06:49:07;9.35;;;3.92;;
44764;SDS011;30484;52.382;5.260;2022-09-09T06:51:38;10.85;;;3.97;;
44764;SDS011;30484;52.382;5.260;2022-09-09T06:54:09;14.80;;;3.92;;
44764;SDS011;30484;52.382;5.260;2022-09-09T06:56:40;10.85;;;4.05;;
44764;SDS011;30484;52.382;5.260;2022-09-09T06:59:09;14.23;;;4.22;;
44764;SDS011;30484;52.382;5.260;2022-09-09T07:01:39;11.75;;;3.47;;
44764;SDS011;30484;52.382;5.260;2022-09-09T07:04:10;9.90;;;3.80;;
44764;SDS011;30484;52.382;5.260;2022-09-09T07:06:40;15.50;;;4.50;;
44764;SDS011;30484;52.382;5.260;2022-09-09T07:09:11;14.68;;;4.43;;
44764;SDS011;30484;52.382;5.260;2022-09-09T07:11:42;7.95;;;3.55;;
44764;SDS011;30484;52.382;5.260;2022-09-09T07:14:13;15.60;;;3.95;;
44764;SDS011;30484;52.382;5.260;2022-09-09T07:16:43;13.15;;;3.60;;
44764;SDS011;30484;52.382;5.260;2022-09-09T07:19:12;12.38;;;2.85;;
44764;SDS011;30484;52.382;5.260;2022-09-09T07:21:42;14.95;;;3.05;;
44764;SDS011;30484;52.382;5.260;2022-09-09T07:24:11;18.05;;;3.40;;
44764;SDS011;30484;52.382;5.260;2022-09-09T07:26:39;10.45;;;2.58;;
44764;SDS011;30484;52.382;5.260;2022-09-09T07:29:08;13.70;;;2.90;;
44764;SDS011;30484;52.382;5.260;2022-09-09T07:31:45;11.48;;;2.83;;
44764;SDS011;30484;52.382;5.260;2022-09-09T07:34:14;18.05;;;3.10;;
44764;SDS011;30484;52.382;5.260;2022-09-09T07:36:44;16.40;;;2.88;;
44764;SDS011;30484;52.382;5.260;2022-09-09T07:39:13;13.05;;;2.67;;
44764;SDS011;30484;52.382;5.260;2022-09-09T07:41:44;8.00;;;2.28;;
44764;SDS011;30484;52.382;5.260;2022-09-09T07:44:15;15.48;;;2.90;;
44764;SDS011;30484;52.382;5.260;2022-09-09T07:46:47;13.57;;;3.10;;
44764;SDS011;30484;52.382;5.260;2022-09-09T07:49:16;9.40;;;2.40;;
44764;SDS011;30484;52.382;5.260;2022-09-09T07:51:54;12.80;;;2.40;;
44764;SDS011;30484;52.382;5.260;2022-09-09T07:54:22;13.50;;;2.92;;
44764;SDS011;30484;52.382;5.260;2022-09-09T07:56:51;11.73;;;2.40;;
44764;SDS011;30484;52.382;5.260;2022-09-09T07:59:20;13.57;;;2.85;;
44764;SDS011;30484;52.382;5.260;2022-09-09T08:01:49;19.45;;;3.08;;
44764;SDS011;30484;52.382;5.260;2022-09-09T08:04:22;13.10;;;2.65;;
44764;SDS011;30484;52.382;5.260;2022-09-09T08:06:55;17.02;;;3.13;;
44764;SDS011;30484;52.382;5.260;2022-09-09T08:09:26;13.75;;;3.20;;
44764;SDS011;30484;52.382;5.260;2022-09-09T08:11:56;10.43;;;2.72;;
44764;SDS011;30484;52.382;5.260;2022-09-09T08:14:26;11.25;;;2.70;;
44764;SDS011;30484;52.382;5.260;2022-09-09T08:16:56;12.60;;;2.63;;
44764;SDS011;30484;52.382;5.260;2022-09-09T08:19:25;16.92;;;2.72;;
44764;SDS011;30484;52.382;5.260;2022-09-09T08:21:56;10.20;;;2.67;;
44764;SDS011;30484;52.382;5.260;2022-09-09T08:24:25;14.55;;;3.35;;
44764;SDS011;30484;52.382;5.260;2022-09-09T08:26:53;11.23;;;3.30;;
44764;SDS011;30484;52.382;5.260;2022-09-09T08:29:22;11.75;;;3.08;;
44764;SDS011;30484;52.382;5.260;2022-09-09T08:31:51;9.57;;;2.70;;
44764;SDS011;30484;52.382;5.260;2022-09-09T08:34:23;12.05;;;2.63;;
44764;SDS011;30484;52.382;5.260;2022-09-09T08:36:53;11.48;;;2.85;;
44764;SDS011;30484;52.382;5.260;2022-09-09T08:39:23;13.27;;;2.97;;
44764;SDS011;30484;52.382;5.260;2022-09-09T08:42:04;18.92;;;3.10;;
44764;SDS011;30484;52.382;5.260;2022-09-09T08:44:57;14.05;;;2.72;;
44764;SDS011;30484;52.382;5.260;2022-09-09T08:47:57;14.30;;;2.97;;
44764;SDS011;30484;52.382;5.260;2022-09-09T08:50:42;11.60;;;2.58;;
44764;SDS011;30484;52.382;5.260;2022-09-09T08:53:14;11.93;;;3.67;;
44764;SDS011;30484;52.382;5.260;2022-09-09T08:55:49;11.88;;;2.38;;
44764;SDS011;30484;52.382;5.260;2022-09-09T08:58:21;8.82;;;2.22;;
44764;SDS011;30484;52.382;5.260;2022-09-09T09:01:05;6.90;;;2.17;;
44764;SDS011;30484;52.382;5.260;2022-09-09T09:03:51;11.63;;;2.10;;
44764;SDS011;30484;52.382;5.260;2022-09-09T09:06:31;9.10;;;2.15;;
44764;SDS011;30484;52.382;5.260;2022-09-09T09:09:18;7.75;;;1.80;;
44764;SDS011;30484;52.382;5.260;2022-09-09T09:11:58;12.70;;;2.40;;
44764;SDS011;30484;52.382;5.260;2022-09-09T09:14:29;11.80;;;2.20;;
44764;SDS011;30484;52.382;5.260;2022-09-09T09:17:02;8.48;;;1.63;;
44764;SDS011;30484;52.382;5.260;2022-09-09T09:19:34;7.93;;;1.90;;
44764;SDS011;30484;52.382;5.260;2022-09-09T09:22:06;12.38;;;2.03;;
44764;SDS011;30484;52.382;5.260;2022-09-09T09:24:45;13.32;;;2.65;;
44764;SDS011;30484;52.382;5.260;2022-09-09T09:27:28;10.18;;;2.35;;
44764;SDS011;30484;52.382;5.260;2022-09-09T09:30:02;13.73;;;2.95;;
44764;SDS011;30484;52.382;5.260;2022-09-09T09:32:55;10.95;;;2.47;;
44764;SDS011;30484;52.382;5.260;2022-09-09T09:35:27;13.00;;;2.63;;
44764;SDS011;30484;52.382;5.260;2022-09-09T09:37:56;11.45;;;2.33;;
44764;SDS011;30484;52.382;5.260;2022-09-09T09:40:50;13.32;;;2.50;;
44764;SDS011;30484;52.382;5.260;2022-09-09T09:43:26;12.73;;;2.42;;
44764;SDS011;30484;52.382;5.260;2022-09-09T09:45:56;10.70;;;2.30;;
44764;SDS011;30484;52.382;5.260;2022-09-09T09:48:42;11.90;;;2.20;;
44764;SDS011;30484;52.382;5.260;2022-09-09T09:51:13;10.15;;;2.65;;
44764;SDS011;30484;52.382;5.260;2022-09-09T09:53:44;12.07;;;2.83;;
44764;SDS011;30484;52.382;5.260;2022-09-09T09:56:13;13.43;;;2.35;;
44764;SDS011;30484;52.382;5.260;2022-09-09T09:58:49;12.10;;;1.98;;
44764;SDS011;30484;52.382;5.260;2022-09-09T10:01:20;10.05;;;2.10;;
44764;SDS011;30484;52.382;5.260;2022-09-09T10:03:52;15.98;;;2.90;;
44764;SDS011;30484;52.382;5.260;2022-09-09T10:06:32;12.30;;;2.45;;
44764;SDS011;30484;52.382;5.260;2022-09-09T10:09:02;11.18;;;2.10;;
44764;SDS011;30484;52.382;5.260;2022-09-09T10:11:49;12.52;;;2.55;;
44764;SDS011;30484;52.382;5.260;2022-09-09T10:14:32;11.93;;;2.47;;
44764;SDS011;30484;52.382;5.260;2022-09-09T10:17:12;10.80;;;1.98;;
44764;SDS011;30484;52.382;5.260;2022-09-09T10:19:56;12.70;;;2.25;;
44764;SDS011;30484;52.382;5.260;2022-09-09T10:22:47;9.10;;;2.28;;
44764;SDS011;30484;52.382;5.260;2022-09-09T10:25:28;9.88;;;2.10;;
44764;SDS011;30484;52.382;5.260;2022-09-09T10:28:23;12.60;;;2.00;;
44764;SDS011;30484;52.382;5.260;2022-09-09T10:31:24;15.77;;;2.95;;
44764;SDS011;30484;52.382;5.260;2022-09-09T10:34:08;14.02;;;2.50;;
44764;SDS011;30484;52.382;5.260;2022-09-09T10:36:48;16.50;;;2.85;;
44764;SDS011;30484;52.382;5.260;2022-09-09T10:39:22;12.85;;;2.15;;
44764;SDS011;30484;52.382;5.260;2022-09-09T10:42:09;14.40;;;2.70;;
44764;SDS011;30484;52.382;5.260;2022-09-09T10:44:53;12.10;;;2.50;;
44764;SDS011;30484;52.382;5.260;2022-09-09T10:50:45;10.03;;;1.83;;
44764;SDS011;30484;52.382;5.260;2022-09-09T10:53:36;12.50;;;2.83;;
44764;SDS011;30484;52.382;5.260;2022-09-09T10:56:16;10.85;;;2.15;;
44764;SDS011;30484;52.382;5.260;2022-09-09T10:58:47;11.20;;;2.35;;
44764;SDS011;30484;52.382;5.260;2022-09-09T11:01:20;10.82;;;2.30;;
44764;SDS011;30484;52.382;5.260;2022-09-09T11:03:59;13.43;;;2.10;;
44764;SDS011;30484;52.382;5.260;2022-09-09T11:06:34;8.52;;;2.20;;
44764;SDS011;30484;52.382;5.260;2022-09-09T11:09:13;12.25;;;2.33;;
44764;SDS011;30484;52.382;5.260;2022-09-09T11:11:49;8.73;;;2.30;;
44764;SDS011;30484;52.382;5.260;2022-09-09T11:14:22;9.95;;;2.03;;
44764;SDS011;30484;52.382;5.260;2022-09-09T11:17:03;6.47;;;1.73;;
44764;SDS011;30484;52.382;5.260;2022-09-09T11:19:41;8.20;;;2.00;;
44764;SDS011;30484;52.382;5.260;2022-09-09T11:22:15;10.15;;;2.30;;
44764;SDS011;30484;52.382;5.260;2022-09-09T11:24:53;14.55;;;2.55;;
44764;SDS011;30484;52.382;5.260;2022-09-09T11:27:27;8.38;;;2.08;;
44764;SDS011;30484;52.382;5.260;2022-09-09T11:30:15;7.60;;;1.80;;
44764;SDS011;30484;52.382;5.260;2022-09-09T11:36:38;11.35;;;1.77;;
44764;SDS011;30484;52.382;5.260;2022-09-09T11:39:37;9.73;;;2.20;;
44764;SDS011;30484;52.382;5.260;2022-09-09T11:44:49;7.25;;;1.85;;
44764;SDS011;30484;52.382;5.260;2022-09-09T11:47:20;8.65;;;2.05;;
44764;SDS011;30484;52.382;5.260;2022-09-09T11:50:06;12.07;;;2.25;;
44764;SDS011;30484;52.382;5.260;2022-09-09T11:52:39;9.20;;;2.13;;
44764;SDS011;30484;52.382;5.260;2022-09-09T11:55:23;12.77;;;2.38;;
44764;SDS011;30484;52.382;5.260;2022-09-09T11:57:57;11.40;;;1.50;;
44764;SDS011;30484;52.382;5.260;2022-09-09T12:00:31;12.00;;;2.50;;
44764;SDS011;30484;52.382;5.260;2022-09-09T12:03:03;11.35;;;2.13;;
44764;SDS011;30484;52.382;5.260;2022-09-09T12:05:36;6.85;;;1.92;;
44764;SDS011;30484;52.382;5.260;2022-09-09T12:08:16;11.18;;;2.13;;
44764;SDS011;30484;52.382;5.260;2022-09-09T12:10:54;7.82;;;2.03;;
44764;SDS011;30484;52.382;5.260;2022-09-09T12:13:28;11.70;;;2.78;;
44764;SDS011;30484;52.382;5.260;2022-09-09T12:16:01;8.82;;;2.10;;
44764;SDS011;30484;52.382;5.260;2022-09-09T12:18:34;7.88;;;1.80;;
44764;SDS011;30484;52.382;5.260;2022-09-09T12:21:06;7.43;;;1.83;;
44764;SDS011;30484;52.382;5.260;2022-09-09T12:23:47;6.65;;;1.65;;
44764;SDS011;30484;52.382;5.260;2022-09-09T12:26:27;9.52;;;1.52;;
44764;SDS011;30484;52.382;5.260;2022-09-09T12:29:08;11.05;;;1.35;;
44764;SDS011;30484;52.382;5.260;2022-09-09T12:31:46;6.40;;;1.30;;
44764;SDS011;30484;52.382;5.260;2022-09-09T12:34:26;6.43;;;1.55;;
44764;SDS011;30484;52.382;5.260;2022-09-09T12:37:04;6.28;;;2.00;;
44764;SDS011;30484;52.382;5.260;2022-09-09T12:39:47;8.02;;;1.90;;
44764;SDS011;30484;52.382;5.260;2022-09-09T12:44:50;5.85;;;2.10;;
44764;SDS011;30484;52.382;5.260;2022-09-09T12:47:21;13.05;;;2.15;;
44764;SDS011;30484;52.382;5.260;2022-09-09T12:49:56;6.38;;;1.40;;
44764;SDS011;30484;52.382;5.260;2022-09-09T12:52:27;8.00;;;1.85;;
44764;SDS011;30484;52.382;5.260;2022-09-09T12:55:02;8.03;;;1.77;;
44764;SDS011;30484;52.382;5.260;2022-09-09T12:57:35;8.52;;;1.55;;
44764;SDS011;30484;52.382;5.260;2022-09-09T13:00:07;5.00;;;1.50;;
44764;SDS011;30484;52.382;5.260;2022-09-09T13:02:47;10.98;;;2.55;;
44764;SDS011;30484;52.382;5.260;2022-09-09T13:05:20;6.70;;;1.88;;
44764;SDS011;30484;52.382;5.260;2022-09-09T13:08:00;6.72;;;1.80;;
44764;SDS011;30484;52.382;5.260;2022-09-09T13:10:32;7.88;;;1.95;;
44764;SDS011;30484;52.382;5.260;2022-09-09T13:13:27;7.05;;;1.55;;
44764;SDS011;30484;52.382;5.260;2022-09-09T13:15:59;6.32;;;1.92;;
44764;SDS011;30484;52.382;5.260;2022-09-09T13:18:34;8.73;;;2.10;;
44764;SDS011;30484;52.382;5.260;2022-09-09T13:21:08;8.13;;;2.25;;
44764;SDS011;30484;52.382;5.260;2022-09-09T13:23:37;8.13;;;2.08;;
44764;SDS011;30484;52.382;5.260;2022-09-09T13:26:20;9.32;;;2.20;;
44764;SDS011;30484;52.382;5.260;2022-09-09T13:28:51;8.68;;;2.15;;
44764;SDS011;30484;52.382;5.260;2022-09-09T13:31:22;9.25;;;2.13;;
44764;SDS011;30484;52.382;5.260;2022-09-09T13:33:56;8.18;;;2.00;;
44764;SDS011;30484;52.382;5.260;2022-09-09T13:36:28;9.70;;;2.00;;
44764;SDS011;30484;52.382;5.260;2022-09-09T13:38:59;10.70;;;2.30;;
44764;SDS011;30484;52.382;5.260;2022-09-09T13:41:32;7.50;;;2.35;;
44764;SDS011;30484;52.382;5.260;2022-09-09T13:44:02;7.72;;;2.20;;
44764;SDS011;30484;52.382;5.260;2022-09-09T13:46:33;10.15;;;2.30;;
44764;SDS011;30484;52.382;5.260;2022-09-09T13:49:17;9.25;;;2.53;;
44764;SDS011;30484;52.382;5.260;2022-09-09T13:51:49;6.43;;;2.30;;
44764;SDS011;30484;52.382;5.260;2022-09-09T13:54:20;11.00;;;2.58;;
44764;SDS011;30484;52.382;5.260;2022-09-09T13:56:50;11.68;;;2.88;;
44764;SDS011;30484;52.382;5.260;2022-09-09T13:59:19;7.63;;;2.92;;
44764;SDS011;30484;52.382;5.260;2022-09-09T14:01:47;11.10;;;2.78;;
44764;SDS011;30484;52.382;5.260;2022-09-09T14:04:18;8.00;;;2.67;;
44764;SDS011;30484;52.382;5.260;2022-09-09T14:06:48;8.18;;;2.53;;
44764;SDS011;30484;52.382;5.260;2022-09-09T14:09:17;11.60;;;2.60;;
44764;SDS011;30484;52.382;5.260;2022-09-09T14:11:46;6.60;;;1.98;;
44764;SDS011;30484;52.382;5.260;2022-09-09T14:14:15;7.55;;;2.10;;
44764;SDS011;30484;52.382;5.260;2022-09-09T14:16:44;8.73;;;2.35;;
44764;SDS011;30484;52.382;5.260;2022-09-09T14:19:12;8.70;;;2.15;;
44764;SDS011;30484;52.382;5.260;2022-09-09T14:21:59;7.45;;;2.03;;
44764;SDS011;30484;52.382;5.260;2022-09-09T14:24:27;10.13;;;2.25;;
44764;SDS011;30484;52.382;5.260;2022-09-09T14:26:56;6.93;;;2.10;;
44764;SDS011;30484;52.382;5.260;2022-09-09T14:29:26;8.75;;;2.17;;
44764;SDS011;30484;52.382;5.260;2022-09-09T14:31:54;10.93;;;2.45;;
44764;SDS011;30484;52.382;5.260;2022-09-09T14:34:22;8.07;;;2.00;;
44764;SDS011;30484;52.382;5.260;2022-09-09T14:36:51;5.95;;;1.98;;
44764;SDS011;30484;52.382;5.260;2022-09-09T14:39:19;4.95;;;1.70;;
44764;SDS011;30484;52.382;5.260;2022-09-09T14:41:47;5.93;;;1.70;;
44764;SDS011;30484;52.382;5.260;2022-09-09T14:44:15;7.43;;;1.67;;
44764;SDS011;30484;52.382;5.260;2022-09-09T14:46:46;9.23;;;1.92;;
44764;SDS011;30484;52.382;5.260;2022-09-09T14:49:16;7.75;;;2.15;;
44764;SDS011;30484;52.382;5.260;2022-09-09T14:51:44;5.80;;;1.45;;
44764;SDS011;30484;52.382;5.260;2022-09-09T14:54:13;7.57;;;1.90;;
44764;SDS011;30484;52.382;5.260;2022-09-09T14:56:42;8.05;;;1.95;;
44764;SDS011;30484;52.382;5.260;2022-09-09T14:59:10;7.50;;;2.03;;
44764;SDS011;30484;52.382;5.260;2022-09-09T15:01:39;5.28;;;1.73;;
44764;SDS011;30484;52.382;5.260;2022-09-09T15:04:10;4.18;;;1.77;;
44764;SDS011;30484;52.382;5.260;2022-09-09T15:06:41;7.05;;;2.00;;
44764;SDS011;30484;52.382;5.260;2022-09-09T15:09:14;8.82;;;1.85;;
44764;SDS011;30484;52.382;5.260;2022-09-09T15:11:42;6.57;;;1.90;;
44764;SDS011;30484;52.382;5.260;2022-09-09T15:14:11;6.35;;;1.90;;
44764;SDS011;30484;52.382;5.260;2022-09-09T15:16:39;6.75;;;1.75;;
44764;SDS011;30484;52.382;5.260;2022-09-09T15:19:11;8.73;;;1.90;;
44764;SDS011;30484;52.382;5.260;2022-09-09T15:21:42;7.55;;;1.80;;
44764;SDS011;30484;52.382;5.260;2022-09-09T15:24:10;5.05;;;1.70;;
44764;SDS011;30484;52.382;5.260;2022-09-09T15:26:39;6.65;;;2.10;;
44764;SDS011;30484;52.382;5.260;2022-09-09T15:29:08;6.25;;;2.08;;
44764;SDS011;30484;52.382;5.260;2022-09-09T15:31:37;7.38;;;2.00;;
44764;SDS011;30484;52.382;5.260;2022-09-09T15:34:06;8.15;;;1.70;;